Time;durP1;ratioP1;P1;durP2;ratioP2;P2;SDS_P1;SDS_P2;PMS_P1;PMS_P2;Temp;Humidity;BMP_temperature;BMP_pressure;BME280_temperature;BME280_humidity;BME280_pressure;Samples;Min_cycle;Max_cycle;Signal;HPM_P1;HPM_P2
2023/11/01 00:00:16;;;;;;;25.15;14.27;;;10.10;99.90;;;;;;5073291;28;20479;-48
2023/11/01 00:02:41;;;;;;;24.75;14.50;;;10.20;99.90;;;;;;5073455;28;20036;-46
2023/11/01 00:05:07;;;;;;;23.73;14.48;;;10.20;99.90;;;;;;5073555;28;20506;-47
2023/11/01 00:07:33;;;;;;;29.63;15.55;;;10.10;99.90;;;;;;5071803;28;20512;-48
2023/11/01 00:09:59;;;;;;;28.13;15.75;;;10.10;99.90;;;;;;5073388;28;20115;-50
2023/11/01 00:12:25;;;;;;;23.13;14.13;;;10.20;99.90;;;;;;5073112;28;20055;-48
2023/11/01 00:14:50;;;;;;;26.02;14.95;;;10.20;99.90;;;;;;5073173;28;20128;-50
2023/11/01 00:17:16;;;;;;;22.50;14.07;;;10.10;99.90;;;;;;5073245;28;20395;-49
2023/11/01 00:19:42;;;;;;;25.73;15.02;;;10.20;99.90;;;;;;5073085;28;20047;-51
2023/11/01 00:22:07;;;;;;;23.92;15.40;;;10.20;99.90;;;;;;5071990;28;20389;-50
2023/11/01 00:24:33;;;;;;;26.77;15.77;;;10.20;99.90;;;;;;5072933;28;20044;-47
2023/11/01 00:26:59;;;;;;;28.13;16.42;;;10.20;99.90;;;;;;5054866;28;20036;-47
2023/11/01 00:29:25;;;;;;;25.42;15.75;;;10.10;99.90;;;;;;5053181;28;20055;-48
2023/11/01 00:31:52;;;;;;;27.17;16.73;;;10.10;99.90;;;;;;5052790;28;20091;-47
2023/11/01 00:34:18;;;;;;;30.20;17.20;;;10.10;99.90;;;;;;5052792;28;20391;-47
2023/11/01 00:36:44;;;;;;;24.98;15.40;;;10.10;99.90;;;;;;5052742;28;20041;-46
2023/11/01 00:39:09;;;;;;;28.05;17.10;;;10.10;99.90;;;;;;5071535;28;20047;-48
2023/11/01 00:41:35;;;;;;;26.85;15.52;;;10.10;99.90;;;;;;5071230;28;20068;-49
2023/11/01 00:44:01;;;;;;;31.85;16.35;;;10.00;99.90;;;;;;5072725;28;20070;-46
2023/11/01 00:46:27;;;;;;;30.10;16.60;;;10.10;99.90;;;;;;5071162;28;20494;-50
2023/11/01 00:48:53;;;;;;;30.25;17.25;;;10.10;99.90;;;;;;5072597;28;20107;-48
2023/11/01 00:51:18;;;;;;;32.22;17.77;;;10.00;99.90;;;;;;5072662;28;20115;-48
2023/11/01 00:53:44;;;;;;;29.05;17.63;;;10.10;99.90;;;;;;5072432;28;20700;-47
2023/11/01 00:56:11;;;;;;;30.58;17.88;;;10.10;99.90;;;;;;5072602;28;20058;-47
2023/11/01 00:58:37;;;;;;;26.38;16.15;;;10.10;99.90;;;;;;5072421;28;20043;-47
2023/11/01 01:01:03;;;;;;;28.27;17.42;;;10.10;99.90;;;;;;5072252;28;20453;-48
2023/11/01 01:03:29;;;;;;;29.38;18.02;;;10.20;99.90;;;;;;5065035;28;20085;-48
2023/11/01 01:05:55;;;;;;;27.77;17.85;;;10.10;99.90;;;;;;5072275;28;20044;-49
2023/11/01 01:08:20;;;;;;;34.97;18.73;;;10.20;99.90;;;;;;5064601;28;20039;-48
2023/11/01 01:10:46;;;;;;;28.65;17.55;;;10.30;99.90;;;;;;5072358;28;20040;-50
2023/11/01 01:13:12;;;;;;;35.80;19.13;;;10.20;99.90;;;;;;5071763;28;20434;-48
2023/11/01 01:15:37;;;;;;;33.85;19.35;;;10.30;99.90;;;;;;5070580;28;20052;-48
2023/11/01 01:18:03;;;;;;;34.78;18.95;;;10.30;99.90;;;;;;5070551;28;20037;-50
2023/11/01 01:20:29;;;;;;;36.00;20.50;;;10.40;99.90;;;;;;5072027;28;20040;-50
2023/11/01 01:22:54;;;;;;;32.42;19.50;;;10.40;99.90;;;;;;5070658;28;20098;-46
2023/11/01 01:25:20;;;;;;;32.88;19.45;;;10.30;99.90;;;;;;5067285;28;20123;-46
2023/11/01 01:27:46;;;;;;;35.55;20.77;;;10.40;99.90;;;;;;5052031;28;20047;-46
2023/11/01 01:30:12;;;;;;;35.90;21.20;;;10.40;99.90;;;;;;5051670;28;20045;-46
2023/11/01 01:32:38;;;;;;;31.15;20.88;;;10.40;99.90;;;;;;5051715;28;20123;-47
2023/11/01 01:35:04;;;;;;;35.33;21.13;;;10.40;99.90;;;;;;5051653;28;20457;-46
2023/11/01 01:37:29;;;;;;;34.25;20.75;;;10.40;99.90;;;;;;5051789;28;20112;-47
2023/11/01 01:39:55;;;;;;;34.92;21.20;;;10.50;99.90;;;;;;5051876;28;20122;-46
2023/11/01 01:42:21;;;;;;;34.10;21.10;;;10.40;99.90;;;;;;5051744;28;20403;-49
2023/11/01 01:44:46;;;;;;;36.13;20.88;;;10.50;99.90;;;;;;5051679;28;20065;-46
2023/11/01 01:47:12;;;;;;;32.67;20.42;;;10.50;99.90;;;;;;5051617;28;20098;-51
2023/11/01 01:49:38;;;;;;;32.42;20.85;;;10.40;99.90;;;;;;5051968;28;20043;-46
2023/11/01 01:52:04;;;;;;;30.10;20.50;;;10.50;99.90;;;;;;5051348;28;20051;-48
2023/11/01 01:54:31;;;;;;;35.10;21.63;;;10.40;99.90;;;;;;5051199;28;20483;-46
2023/11/01 01:56:57;;;;;;;33.47;21.55;;;10.50;99.90;;;;;;5051647;28;20037;-48
2023/11/01 01:59:23;;;;;;;39.72;21.23;;;10.50;99.90;;;;;;5051428;28;20035;-47
2023/11/01 02:01:50;;;;;;;35.00;21.63;;;10.50;99.90;;;;;;5051475;28;20104;-53
2023/11/01 02:04:16;;;;;;;39.97;22.60;;;10.40;99.90;;;;;;5051639;28;20037;-50
2023/11/01 02:06:43;;;;;;;34.75;21.45;;;10.50;99.90;;;;;;5051322;28;20041;-47
2023/11/01 02:09:15;;;;;;;31.75;20.48;;;10.40;99.90;;;;;;5051287;28;20041;-48
2023/11/01 02:11:44;;;;;;;30.33;20.83;;;10.50;99.90;;;;;;5051281;28;20045;-49
2023/11/01 02:14:11;;;;;;;32.92;21.60;;;10.50;99.90;;;;;;5049734;28;20041;-50
2023/11/01 02:16:38;;;;;;;39.55;22.23;;;10.40;99.90;;;;;;5051251;28;20095;-47
2023/11/01 02:19:07;;;;;;;36.65;22.42;;;10.40;99.90;;;;;;5051235;28;20029;-47
2023/11/01 02:21:32;;;;;;;38.40;20.98;;;10.40;99.90;;;;;;5051295;28;20037;-47
2023/11/01 02:23:58;;;;;;;37.05;21.63;;;10.40;99.90;;;;;;5049988;28;20127;-46
2023/11/01 02:26:25;;;;;;;30.83;21.73;;;10.40;99.90;;;;;;5050109;28;20127;-46
2023/11/01 02:28:51;;;;;;;32.40;21.83;;;10.30;99.90;;;;;;5050975;28;20040;-45
2023/11/01 02:31:17;;;;;;;37.53;22.13;;;10.40;99.90;;;;;;5051140;28;20391;-46
2023/11/01 02:33:42;;;;;;;33.22;21.92;;;10.40;99.90;;;;;;5050760;28;20064;-46
2023/11/01 02:36:08;;;;;;;31.67;22.25;;;10.40;99.90;;;;;;5051017;28;20041;-48
2023/11/01 02:38:34;;;;;;;29.50;20.65;;;10.40;99.90;;;;;;5050888;28;20036;-48
2023/11/01 02:40:59;;;;;;;30.90;20.15;;;10.40;99.90;;;;;;5051142;28;20104;-47
2023/11/01 02:43:28;;;;;;;36.38;20.80;;;10.40;99.90;;;;;;5051028;28;20073;-47
2023/11/01 02:45:54;;;;;;;33.35;18.80;;;10.40;99.90;;;;;;5052464;28;20037;-48
2023/11/01 02:48:21;;;;;;;29.35;20.38;;;10.30;99.90;;;;;;5054825;28;20060;-48
2023/11/01 02:50:46;;;;;;;34.38;21.75;;;10.30;99.90;;;;;;5054786;28;20037;-46
2023/11/01 02:53:12;;;;;;;32.65;19.98;;;10.30;99.90;;;;;;5054807;28;20041;-48
2023/11/01 02:55:38;;;;;;;37.80;22.05;;;10.40;99.90;;;;;;5054757;28;20045;-50
2023/11/01 02:58:04;;;;;;;29.10;19.52;;;10.40;99.90;;;;;;5054679;28;20415;-47
2023/11/01 03:00:30;;;;;;;39.30;21.55;;;10.30;99.90;;;;;;5054798;28;20605;-48
2023/11/01 03:02:57;;;;;;;31.52;20.77;;;10.30;99.90;;;;;;5054527;28;20040;-48
2023/11/01 03:05:25;;;;;;;32.50;20.77;;;10.40;99.90;;;;;;5054455;28;20041;-48
2023/11/01 03:07:52;;;;;;;29.13;19.45;;;10.20;99.90;;;;;;5053100;28;20073;-52
2023/11/01 03:10:18;;;;;;;29.30;18.75;;;10.20;99.90;;;;;;5073624;28;20047;-51
2023/11/01 03:12:45;;;;;;;25.98;18.45;;;10.20;99.90;;;;;;5074103;28;20048;-49
2023/11/01 03:15:11;;;;;;;33.60;19.30;;;10.30;99.90;;;;;;5074205;28;20053;-47
2023/11/01 03:17:37;;;;;;;35.17;19.73;;;10.20;99.90;;;;;;5074508;28;20158;-51
2023/11/01 03:20:05;;;;;;;30.92;19.33;;;10.30;99.90;;;;;;5074516;28;20122;-48
2023/11/01 03:22:31;;;;;;;28.48;19.20;;;10.20;99.90;;;;;;5074496;28;20083;-51
2023/11/01 03:24:57;;;;;;;27.75;18.98;;;10.30;99.90;;;;;;5072748;28;20653;-49
2023/11/01 03:27:23;;;;;;;31.85;19.65;;;10.30;99.90;;;;;;5054319;28;20120;-50
2023/11/01 03:29:48;;;;;;;28.75;18.27;;;10.30;99.90;;;;;;5053971;28;20033;-49
2023/11/01 03:32:14;;;;;;;26.40;17.67;;;10.30;99.90;;;;;;5053052;28;20033;-48
2023/11/01 03:34:40;;;;;;;24.35;18.70;;;10.30;99.90;;;;;;5054186;28;20483;-46
2023/11/01 03:37:06;;;;;;;33.40;19.30;;;10.20;99.90;;;;;;5053736;28;20037;-51
2023/11/01 03:39:32;;;;;;;26.15;17.88;;;10.30;99.90;;;;;;5052888;28;20069;-48
2023/11/01 03:41:57;;;;;;;23.73;18.00;;;10.40;99.90;;;;;;5053769;28;20045;-46
2023/11/01 03:44:23;;;;;;;26.65;17.00;;;10.40;99.90;;;;;;5052523;28;20086;-48
2023/11/01 03:46:49;;;;;;;26.52;18.17;;;10.40;99.90;;;;;;5054023;28;20048;-49
2023/11/01 03:49:14;;;;;;;25.60;17.65;;;10.50;99.90;;;;;;5053600;28;20047;-49
2023/11/01 03:51:40;;;;;;;31.35;18.83;;;10.50;99.90;;;;;;5053839;28;20037;-50
2023/11/01 03:54:06;;;;;;;24.30;16.83;;;10.60;99.90;;;;;;5053516;28;20055;-49
2023/11/01 03:56:31;;;;;;;26.65;17.52;;;10.60;99.90;;;;;;5053381;28;20044;-49
2023/11/01 03:58:58;;;;;;;26.85;17.25;;;10.60;99.90;;;;;;5053496;28;20098;-50
2023/11/01 04:01:24;;;;;;;25.13;16.17;;;10.70;99.90;;;;;;5060001;28;20041;-50
2023/11/01 04:03:49;;;;;;;26.92;16.35;;;10.60;99.90;;;;;;5073777;28;20547;-48
2023/11/01 04:06:15;;;;;;;25.40;17.35;;;10.70;99.90;;;;;;5073700;28;20067;-50
2023/11/01 04:08:41;;;;;;;30.33;17.42;;;10.70;99.90;;;;;;5073633;28;20472;-51
2023/11/01 04:11:07;;;;;;;24.92;17.00;;;10.80;99.90;;;;;;5073183;28;20145;-50
2023/11/01 04:13:32;;;;;;;24.33;17.02;;;10.80;99.90;;;;;;5073231;28;20047;-48
2023/11/01 04:15:58;;;;;;;32.60;18.30;;;10.80;99.90;;;;;;5073025;28;20056;-48
2023/11/01 04:18:24;;;;;;;32.63;18.17;;;10.90;99.90;;;;;;5072136;28;20032;-47
2023/11/01 04:20:50;;;;;;;28.65;18.60;;;10.90;99.90;;;;;;5073104;28;20043;-48
2023/11/01 04:23:16;;;;;;;28.80;17.63;;;10.90;99.90;;;;;;5072966;28;20036;-47
2023/11/01 04:25:42;;;;;;;28.25;18.55;;;10.90;99.90;;;;;;5073087;28;20033;-48
2023/11/01 04:28:08;;;;;;;30.13;19.50;;;11.00;99.90;;;;;;5072842;28;20036;-48
2023/11/01 04:30:38;;;;;;;35.17;19.25;;;11.00;99.90;;;;;;5072858;28;20067;-47
2023/11/01 04:33:07;;;;;;;31.17;19.77;;;11.10;99.90;;;;;;5072876;28;20119;-46
2023/11/01 04:35:36;;;;;;;39.78;18.58;;;11.10;99.90;;;;;;5071649;28;20486;-47
2023/11/01 04:38:02;;;;;;;31.27;20.20;;;11.10;99.90;;;;;;5072624;28;20540;-47
2023/11/01 04:40:28;;;;;;;30.90;19.45;;;11.20;99.90;;;;;;5072703;28;20499;-49
2023/11/01 04:42:54;;;;;;;32.33;19.25;;;11.10;99.90;;;;;;5071430;28;20048;-48
2023/11/01 04:45:19;;;;;;;33.78;18.73;;;11.10;99.90;;;;;;5072665;28;20109;-47
2023/11/01 04:47:46;;;;;;;29.98;19.65;;;11.30;99.90;;;;;;5072798;28;20077;-48
2023/11/01 04:50:14;;;;;;;30.50;17.98;;;11.30;99.90;;;;;;5072356;28;20032;-47
2023/11/01 04:52:41;;;;;;;32.83;19.05;;;11.30;99.90;;;;;;5071204;28;20116;-46
2023/11/01 04:55:10;;;;;;;27.23;18.35;;;11.40;99.90;;;;;;5072243;28;20032;-48
2023/11/01 04:57:36;;;;;;;29.65;18.40;;;11.30;99.90;;;;;;5072354;28;20401;-48
2023/11/01 05:00:08;;;;;;;27.92;17.83;;;11.20;99.90;;;;;;5072422;28;20032;-47
2023/11/01 05:02:35;;;;;;;34.45;18.75;;;11.30;99.90;;;;;;5072424;28;20036;-47
2023/11/01 05:05:05;;;;;;;29.52;17.67;;;11.30;99.90;;;;;;5072355;28;20109;-51
2023/11/01 05:07:35;;;;;;;28.10;17.58;;;11.20;99.90;;;;;;5072261;28;20044;-50
2023/11/01 05:10:02;;;;;;;31.00;18.50;;;11.20;99.90;;;;;;5071469;28;20043;-48
2023/11/01 05:12:28;;;;;;;32.88;18.58;;;11.30;99.90;;;;;;5054338;28;20106;-47
2023/11/01 05:14:54;;;;;;;33.50;18.88;;;11.20;99.90;;;;;;5072058;28;20441;-46
2023/11/01 05:17:20;;;;;;;30.52;16.95;;;11.20;99.90;;;;;;5071974;28;20045;-48
2023/11/01 05:19:46;;;;;;;30.73;16.35;;;11.30;99.90;;;;;;5072146;28;20048;-47
2023/11/01 05:22:12;;;;;;;27.98;16.77;;;11.40;99.90;;;;;;5054316;28;20434;-50
2023/11/01 05:24:37;;;;;;;28.50;16.92;;;11.30;99.90;;;;;;5071812;28;20048;-48
2023/11/01 05:27:03;;;;;;;24.77;16.40;;;11.40;99.90;;;;;;5072185;28;20049;-48
2023/11/01 05:29:30;;;;;;;29.05;16.65;;;11.40;99.90;;;;;;5071703;28;20050;-48
2023/11/01 05:31:55;;;;;;;23.02;15.68;;;11.30;99.90;;;;;;5071935;28;20037;-48
2023/11/01 05:34:21;;;;;;;24.48;16.02;;;11.40;99.90;;;;;;5072043;28;20121;-50
2023/11/01 05:36:47;;;;;;;25.90;16.55;;;11.50;99.90;;;;;;5070509;28;20049;-47
2023/11/01 05:39:12;;;;;;;24.33;15.45;;;11.30;99.90;;;;;;5071751;28;20036;-48
2023/11/01 05:41:38;;;;;;;25.45;15.65;;;11.40;99.90;;;;;;5069066;28;20520;-48
2023/11/01 05:44:04;;;;;;;25.90;16.08;;;11.40;99.90;;;;;;5071898;28;20588;-46
2023/11/01 05:46:30;;;;;;;27.77;14.93;;;11.40;99.90;;;;;;5068084;28;20493;-45
2023/11/01 05:48:56;;;;;;;25.55;14.90;;;11.30;99.90;;;;;;5061137;28;20044;-51
2023/11/01 05:51:21;;;;;;;25.50;14.05;;;11.40;99.90;;;;;;5071318;28;20051;-49
2023/11/01 05:53:47;;;;;;;21.10;12.98;;;11.30;99.90;;;;;;5071440;28;20041;-50
2023/11/01 05:56:15;;;;;;;22.88;13.27;;;11.30;99.90;;;;;;5070275;28;20391;-49
2023/11/01 05:58:40;;;;;;;19.45;13.70;;;11.40;99.90;;;;;;5071499;28;20046;-51
2023/11/01 06:01:06;;;;;;;22.58;14.00;;;11.30;99.90;;;;;;5071736;28;20040;-50
2023/11/01 06:03:32;;;;;;;22.17;13.73;;;11.40;99.90;;;;;;5067764;28;20128;-49
2023/11/01 06:05:57;;;;;;;22.63;13.63;;;11.40;99.90;;;;;;5066470;28;20101;-52
2023/11/01 06:08:24;;;;;;;22.67;13.38;;;11.30;99.90;;;;;;5070208;28;20044;-49
2023/11/01 06:10:50;;;;;;;23.75;13.95;;;11.40;99.90;;;;;;5057332;28;20028;-47
2023/11/01 06:13:16;;;;;;;23.83;13.73;;;11.40;99.90;;;;;;5071481;28;20359;-48
2023/11/01 06:15:41;;;;;;;23.05;13.57;;;11.40;99.90;;;;;;5069943;28;20060;-46
2023/11/01 06:18:07;;;;;;;23.17;13.80;;;11.50;99.90;;;;;;5071160;28;20552;-46
2023/11/01 06:20:34;;;;;;;20.30;12.95;;;11.40;99.90;;;;;;5070962;28;20096;-47
2023/11/01 06:23:00;;;;;;;23.00;13.18;;;11.50;99.90;;;;;;5074147;28;20440;-47
2023/11/01 06:25:26;;;;;;;18.77;11.65;;;11.30;99.90;;;;;;5074366;28;20102;-47
2023/11/01 06:27:52;;;;;;;19.92;11.73;;;11.50;99.90;;;;;;5075103;28;20112;-46
2023/11/01 06:30:18;;;;;;;19.92;11.30;;;11.40;99.90;;;;;;5075486;28;20128;-48
2023/11/01 06:32:44;;;;;;;17.42;11.45;;;11.40;99.90;;;;;;5074959;28;20040;-49
2023/11/01 06:35:09;;;;;;;21.60;12.73;;;11.50;99.90;;;;;;5070482;28;20033;-49
2023/11/01 06:37:35;;;;;;;18.13;10.57;;;11.50;99.90;;;;;;5073782;28;20098;-46
2023/11/01 06:40:05;;;;;;;18.35;10.45;;;11.50;99.90;;;;;;5070387;28;20029;-47
2023/11/01 06:42:31;;;;;;;21.55;11.05;;;11.50;99.90;;;;;;5074938;28;20505;-47
2023/11/01 06:44:57;;;;;;;19.40;10.48;;;11.50;99.90;;;;;;5075046;28;20047;-50
2023/11/01 06:47:23;;;;;;;23.40;10.93;;;11.50;99.90;;;;;;5074839;28;20044;-47
2023/11/01 06:49:49;;;;;;;19.75;10.93;;;11.50;99.90;;;;;;5074610;28;20371;-48
2023/11/01 06:52:15;;;;;;;17.10;10.38;;;11.50;99.90;;;;;;5074767;28;20111;-46
2023/11/01 06:54:43;;;;;;;16.65;10.55;;;11.50;99.90;;;;;;5073308;28;20482;-50
2023/11/01 06:57:11;;;;;;;18.80;11.02;;;11.50;99.90;;;;;;5074515;28;20056;-47
2023/11/01 06:59:41;;;;;;;15.23;10.48;;;11.50;99.90;;;;;;5073089;28;20075;-49
2023/11/01 07:02:07;;;;;;;18.00;9.52;;;11.60;99.90;;;;;;5074740;28;20044;-51
2023/11/01 07:04:33;;;;;;;12.75;8.93;;;11.60;99.90;;;;;;5073694;28;20040;-47
2023/11/01 07:06:59;;;;;;;15.65;9.35;;;11.60;99.90;;;;;;5074464;28;20041;-48
2023/11/01 07:09:24;;;;;;;18.23;9.32;;;11.60;99.90;;;;;;5066968;28;20037;-50
2023/11/01 07:11:50;;;;;;;16.38;9.85;;;11.70;99.90;;;;;;5067289;28;20143;-47
2023/11/01 07:14:19;;;;;;;13.82;9.52;;;11.70;99.90;;;;;;5074227;28;20528;-47
2023/11/01 07:16:45;;;;;;;11.80;8.05;;;11.60;99.90;;;;;;5073158;28;20169;-49
2023/11/01 07:19:12;;;;;;;18.40;9.52;;;11.70;99.90;;;;;;5069712;28;20083;-46
2023/11/01 07:21:40;;;;;;;14.00;8.88;;;11.60;99.90;;;;;;5064927;28;20082;-49
2023/11/01 07:24:09;;;;;;;11.85;8.07;;;11.70;99.90;;;;;;5074357;28;20037;-48
2023/11/01 07:26:35;;;;;;;16.73;8.60;;;11.70;99.90;;;;;;5074277;28;20102;-48
2023/11/01 07:29:01;;;;;;;15.65;8.45;;;11.70;99.90;;;;;;5074032;28;20426;-50
2023/11/01 07:31:27;;;;;;;18.10;8.35;;;11.80;99.90;;;;;;5073548;28;20115;-48
2023/11/01 07:33:53;;;;;;;14.85;8.50;;;11.80;99.90;;;;;;5071875;28;20082;-48
2023/11/01 07:36:20;;;;;;;12.40;7.93;;;11.80;99.90;;;;;;5073358;28;20039;-48
2023/11/01 07:38:46;;;;;;;14.85;7.75;;;11.80;99.90;;;;;;5073765;28;20127;-47
2023/11/01 07:41:12;;;;;;;17.10;8.45;;;11.80;99.90;;;;;;5071539;28;20060;-46
2023/11/01 07:43:41;;;;;;;14.95;8.20;;;11.80;99.90;;;;;;5073762;28;20054;-46
2023/11/01 07:46:08;;;;;;;15.88;7.43;;;11.90;99.90;;;;;;5070265;28;20269;-47
2023/11/01 07:48:35;;;;;;;13.35;7.60;;;11.80;99.90;;;;;;5073837;28;20041;-47
2023/11/01 07:51:07;;;;;;;15.98;7.35;;;11.90;99.90;;;;;;5073774;28;20044;-47
2023/11/01 07:53:34;;;;;;;16.13;7.63;;;11.80;99.90;;;;;;5073722;28;20033;-47
2023/11/01 07:56:00;;;;;;;11.20;6.88;;;11.80;99.90;;;;;;5073726;28;20054;-47
2023/11/01 07:58:26;;;;;;;15.57;6.93;;;11.80;99.90;;;;;;5073468;28;20040;-46
2023/11/01 08:00:52;;;;;;;13.00;7.40;;;11.90;99.90;;;;;;5073434;28;20051;-46
2023/11/01 08:03:18;;;;;;;9.70;6.53;;;12.00;99.90;;;;;;5073331;28;20048;-45
2023/11/01 08:05:44;;;;;;;12.38;6.35;;;11.90;99.90;;;;;;5067080;28;20036;-46
2023/11/01 08:08:10;;;;;;;10.38;6.45;;;11.90;99.90;;;;;;5073574;28;20037;-47
2023/11/01 08:10:36;;;;;;;10.40;6.05;;;11.90;99.90;;;;;;5061356;28;20048;-45
2023/11/01 08:13:02;;;;;;;12.02;6.20;;;12.00;99.90;;;;;;5073126;28;20476;-46
2023/11/01 08:15:33;;;;;;;10.27;5.80;;;11.90;99.90;;;;;;5073083;28;20135;-45
2023/11/01 08:18:02;;;;;;;11.82;5.80;;;11.90;99.90;;;;;;5073574;28;20032;-48
2023/11/01 08:20:30;;;;;;;8.55;5.30;;;12.00;99.90;;;;;;5073126;28;20072;-47
2023/11/01 08:22:56;;;;;;;9.18;5.40;;;12.00;99.90;;;;;;5073214;28;20111;-46
2023/11/01 08:25:23;;;;;;;7.47;5.03;;;12.00;99.90;;;;;;5059678;28;20398;-47
2023/11/01 08:27:49;;;;;;;6.78;4.78;;;12.00;99.90;;;;;;5072266;28;20040;-47
2023/11/01 08:30:15;;;;;;;11.60;4.85;;;12.00;99.90;;;;;;5055169;28;20083;-47
2023/11/01 08:32:41;;;;;;;6.35;4.10;;;12.10;99.90;;;;;;5072949;28;20078;-47
2023/11/01 08:35:08;;;;;;;8.55;3.83;;;12.10;99.90;;;;;;5070496;28;20422;-48
2023/11/01 08:37:34;;;;;;;5.90;3.92;;;12.10;99.90;;;;;;5072665;28;20529;-47
2023/11/01 08:40:00;;;;;;;5.88;3.78;;;12.10;99.90;;;;;;5072752;28;20071;-47
2023/11/01 08:42:26;;;;;;;7.47;3.65;;;12.10;99.90;;;;;;5071146;28;20071;-46
2023/11/01 08:44:52;;;;;;;4.70;3.13;;;12.00;99.90;;;;;;5072436;28;20044;-46
2023/11/01 08:47:38;;;;;;;5.40;2.83;;;12.10;99.90;;;;;;5073208;28;20485;-47
2023/11/01 08:50:04;;;;;;;5.43;2.90;;;12.10;99.90;;;;;;5045719;28;20040;-46
2023/11/01 08:52:32;;;;;;;5.90;2.60;;;12.00;99.90;;;;;;5072476;28;20037;-47
2023/11/01 08:54:59;;;;;;;4.40;2.30;;;12.10;99.90;;;;;;5072182;28;20475;-49
2023/11/01 08:57:25;;;;;;;2.35;2.15;;;12.00;99.90;;;;;;5072675;28;20089;-48
2023/11/01 08:59:51;;;;;;;4.30;2.10;;;12.10;99.90;;;;;;5072279;28;20115;-46
2023/11/01 09:02:17;;;;;;;2.17;1.92;;;12.20;99.90;;;;;;5072269;28;20383;-50
2023/11/01 09:04:44;;;;;;;2.95;2.10;;;12.20;99.90;;;;;;5072308;28;20049;-48
2023/11/01 09:07:10;;;;;;;3.53;2.33;;;12.10;99.90;;;;;;5072229;28;20044;-47
2023/11/01 09:09:36;;;;;;;3.38;2.17;;;12.20;99.90;;;;;;5071185;28;20044;-48
2023/11/01 09:12:02;;;;;;;3.95;2.13;;;12.10;99.90;;;;;;5072190;28;20040;-46
2023/11/01 09:14:28;;;;;;;3.60;2.20;;;12.10;99.90;;;;;;5072068;28;20411;-47
2023/11/01 09:16:54;;;;;;;3.55;2.20;;;12.20;99.90;;;;;;5072118;28;20056;-49
2023/11/01 09:19:19;;;;;;;4.70;2.40;;;12.20;99.90;;;;;;5071828;28;20036;-46
2023/11/01 09:21:45;;;;;;;3.38;2.50;;;12.30;99.90;;;;;;5072485;28;20037;-46
2023/11/01 09:24:11;;;;;;;4.25;2.70;;;12.20;99.90;;;;;;5071753;28;20396;-47
2023/11/01 09:26:37;;;;;;;3.60;2.78;;;12.30;99.90;;;;;;5072156;28;20055;-46
2023/11/01 09:29:02;;;;;;;3.50;2.80;;;12.30;99.90;;;;;;5071911;28;20040;-47
2023/11/01 09:31:28;;;;;;;5.20;3.17;;;12.30;99.90;;;;;;5071972;28;20041;-46
2023/11/01 09:33:54;;;;;;;4.50;3.55;;;12.30;99.90;;;;;;5071689;28;20044;-48
2023/11/01 09:36:19;;;;;;;6.30;3.70;;;12.30;99.90;;;;;;5071945;28;20076;-46
2023/11/01 09:38:45;;;;;;;3.70;3.40;;;12.40;99.90;;;;;;5072042;28;20546;-49
2023/11/01 09:41:17;;;;;;;7.30;3.97;;;12.20;99.90;;;;;;5071828;28;20028;-51
2023/11/01 09:43:45;;;;;;;4.20;3.80;;;12.30;99.90;;;;;;5071834;28;20044;-47
2023/11/01 09:46:11;;;;;;;6.32;4.20;;;12.40;99.90;;;;;;5071467;28;20501;-47
2023/11/01 09:48:37;;;;;;;8.85;5.00;;;12.50;99.90;;;;;;5071607;28;20119;-46
2023/11/01 09:51:05;;;;;;;5.80;5.20;;;12.50;99.90;;;;;;5071472;28;20115;-49
2023/11/01 09:53:31;;;;;;;11.95;6.22;;;12.40;99.90;;;;;;5071638;28;20360;-49
2023/11/01 09:55:57;;;;;;;12.75;7.75;;;12.50;99.90;;;;;;5071221;28;20036;-48
2023/11/01 09:58:25;;;;;;;12.52;7.57;;;12.50;99.90;;;;;;5071615;28;20376;-50
2023/11/01 10:00:54;;;;;;;16.48;8.98;;;12.70;99.90;;;;;;5071293;28;20496;-51
2023/11/01 10:03:22;;;;;;;15.48;9.30;;;12.80;99.90;;;;;;5071512;28;20085;-46
2023/11/01 10:05:48;;;;;;;21.42;9.27;;;12.80;99.90;;;;;;5060097;28;20111;-48
2023/11/01 10:08:13;;;;;;;14.43;9.48;;;12.80;99.90;;;;;;5071540;28;20465;-46
2023/11/01 10:10:41;;;;;;;19.27;10.68;;;13.00;99.90;;;;;;5071453;28;20037;-46
2023/11/01 10:13:09;;;;;;;21.20;10.75;;;12.90;99.90;;;;;;5071198;28;20044;-47
2023/11/01 10:15:34;;;;;;;22.90;10.73;;;13.20;99.90;;;;;;5071332;28;20052;-50
2023/11/01 10:18:00;;;;;;;16.65;10.02;;;13.20;99.90;;;;;;5071138;28;20060;-46
2023/11/01 10:20:29;;;;;;;17.27;9.50;;;13.30;99.90;;;;;;5071248;28;20103;-47
2023/11/01 10:22:58;;;;;;;20.98;9.70;;;13.40;99.90;;;;;;5071484;28;20075;-47
2023/11/01 10:25:24;;;;;;;17.75;10.40;;;13.30;99.90;;;;;;5043928;28;20036;-48
2023/11/01 10:27:50;;;;;;;18.67;9.40;;;13.40;99.90;;;;;;5071290;28;20103;-47
2023/11/01 10:30:16;;;;;;;20.73;9.60;;;13.50;99.90;;;;;;5071169;28;20039;-47
2023/11/01 10:32:56;;;;;;;17.10;9.70;;;13.50;99.90;;;;;;5071058;28;20028;-46
2023/11/01 10:35:22;;;;;;;;;;;13.60;99.90;;;;;;5071613;28;20036;-46
2023/11/01 10:37:58;;;;;;;18.88;8.63;;;13.70;99.90;;;;;;5071356;28;19963;-47
2023/11/01 10:40:26;;;;;;;16.10;9.15;;;13.80;99.90;;;;;;5071033;28;20105;-48
2023/11/01 10:42:56;;;;;;;21.48;9.15;;;13.80;99.90;;;;;;5071541;28;20506;-47
2023/11/01 10:45:21;;;;;;;15.35;7.70;;;13.80;99.90;;;;;;5070856;28;20033;-50
2023/11/01 10:47:49;;;;;;;15.55;7.60;;;13.80;99.90;;;;;;5070998;28;20044;-47
2023/11/01 10:50:15;;;;;;;19.02;8.23;;;13.80;99.90;;;;;;5070880;28;20041;-46
2023/11/01 10:52:42;;;;;;;17.33;7.35;;;13.80;99.90;;;;;;5070897;28;20040;-46
2023/11/01 10:55:10;;;;;;;19.27;8.07;;;13.80;99.90;;;;;;5071202;28;20040;-47
2023/11/01 10:57:36;;;;;;;15.52;6.72;;;13.80;99.90;;;;;;5071064;28;20115;-45
2023/11/01 11:00:16;;;;;;;16.70;6.85;;;13.70;99.90;;;;;;5068963;28;20039;-47
2023/11/01 11:03:08;;;;;;;13.45;6.45;;;13.80;99.90;;;;;;5062961;28;20071;-46
2023/11/01 11:05:39;;;;;;;23.05;7.00;;;13.90;99.90;;;;;;5041448;28;20487;-47
2023/11/01 11:08:10;;;;;;;18.58;6.57;;;13.90;99.90;;;;;;5068148;28;20062;-45
2023/11/01 11:10:39;;;;;;;16.13;6.35;;;13.90;99.90;;;;;;5074438;28;20048;-48
2023/11/01 11:13:16;;;;;;;;;;;14.00;99.90;;;;;;5074993;28;20120;-48
2023/11/01 11:15:48;;;;;;;17.25;5.35;;;14.00;99.90;;;;;;5074392;28;20218;-49
2023/11/01 11:18:16;;;;;;;21.50;6.88;;;14.00;99.90;;;;;;5074516;28;20112;-46
2023/11/01 11:20:42;;;;;;;18.55;5.22;;;14.10;99.90;;;;;;5074130;28;20745;-47
2023/11/01 11:23:09;;;;;;;17.95;5.95;;;14.10;99.90;;;;;;5074459;28;20036;-47
2023/11/01 11:25:38;;;;;;;12.57;5.05;;;14.10;99.90;;;;;;5074190;28;20040;-48
2023/11/01 11:28:13;;;;;;;16.63;5.07;;;14.20;99.90;;;;;;5074530;28;20098;-48
2023/11/01 11:30:44;;;;;;;12.90;4.43;;;14.30;99.90;;;;;;5074065;28;20045;-46
2023/11/01 11:33:11;;;;;;;17.67;4.97;;;14.30;99.90;;;;;;5074001;28;20043;-47
2023/11/01 11:35:37;;;;;;;14.68;4.35;;;14.40;99.90;;;;;;5063259;28;20510;-46
2023/11/01 11:38:52;;;;;;;17.73;4.18;;;14.30;99.90;;;;;;5073711;28;20037;-45
2023/11/01 11:41:19;;;;;;;16.85;4.45;;;14.30;99.90;;;;;;5051694;28;20088;-48
2023/11/01 11:44:13;;;;;;;12.27;3.53;;;14.40;99.90;;;;;;5051580;28;20112;-46
2023/11/01 11:46:41;;;;;;;12.13;3.90;;;14.30;99.90;;;;;;5067975;28;20055;-46
2023/11/01 11:49:28;;;;;;;18.83;4.72;;;14.40;99.90;;;;;;5073667;28;20028;-48
2023/11/01 11:52:09;;;;;;;9.88;3.50;;;14.40;99.90;;;;;;5073643;28;20482;-46
2023/11/01 11:54:35;;;;;;;13.82;3.97;;;14.50;99.90;;;;;;5048605;28;20048;-45
2023/11/01 11:57:16;;;;;;;13.05;3.50;;;14.60;99.90;;;;;;5073996;28;20064;-48
2023/11/01 11:59:42;;;;;;;17.42;4.55;;;14.70;99.90;;;;;;5073741;28;20042;-47
2023/11/01 12:02:18;;;;;;;17.48;3.80;;;14.60;99.90;;;;;;5072481;28;20060;-46
2023/11/01 12:04:44;;;;;;;18.55;3.85;;;14.60;99.90;;;;;;5073398;28;20509;-47
2023/11/01 12:07:18;;;;;;;14.85;4.13;;;14.60;99.90;;;;;;5073743;28;20044;-47
2023/11/01 12:09:48;;;;;;;12.07;3.33;;;14.60;99.90;;;;;;5073580;28;20116;-47
2023/11/01 12:12:14;;;;;;;10.43;3.00;;;14.60;99.90;;;;;;5073311;28;20040;-46
2023/11/01 12:14:40;;;;;;;9.70;3.25;;;14.70;99.90;;;;;;5073157;28;20061;-47
2023/11/01 12:17:07;;;;;;;14.07;3.45;;;14.70;99.90;;;;;;5071859;28;20044;-46
2023/11/01 12:19:33;;;;;;;20.75;3.80;;;14.70;99.90;;;;;;5073453;28;20101;-47
2023/11/01 12:22:00;;;;;;;13.70;3.40;;;14.80;99.90;;;;;;5073066;28;20036;-46
2023/11/01 12:24:38;;;;;;;17.58;2.85;;;14.90;99.90;;;;;;5073122;28;20062;-46
2023/11/01 12:27:21;;;;;;;10.57;2.83;;;14.90;99.90;;;;;;5073104;28;20044;-45
2023/11/01 12:29:54;;;;;;;9.68;3.05;;;15.00;99.90;;;;;;5048254;28;20041;-47
2023/11/01 12:32:27;;;;;;;10.40;3.40;;;15.00;99.90;;;;;;5073245;28;20394;-48